Terminal Aerodrome Forecast
Issued by NWS Charleston, WV

Current Version | Previous Version | Graphics & Text | Print | Product List | Glossary On
Versions: 1 2 3 4 5 6 7 8 9 10 11 12 13 14 15 16 17 18 19 20 21
000
FTUS41 KRLX 100800 AAA
TAFPKB
TAF AMD
KPKB 100850Z 1009/1106 00000KT 1 1/2SM BR BKN001
     FM101230 00000KT 2SM BR BKN003
     FM101300 00000KT P6SM SCT050
     FM101500 34005KT P6SM SCT060=

USA.gov is the U.S. government's official web portal to all federal, state and local government web resources and services.